createdAt,value
2024-03-14T00:00:04.912Z,0.50
2024-03-14T00:00:24.066Z,0.70
2024-03-14T00:00:36.647Z,1.23
2024-03-14T00:00:49.874Z,1.30
2024-03-14T00:01:02.472Z,1.05
2024-03-14T00:01:17.366Z,0.77
2024-03-14T00:01:32.561Z,1.10
2024-03-14T00:01:45.839Z,1.30
2024-03-14T00:01:58.159Z,1.10
2024-03-14T00:02:10.701Z,0.68
2024-03-14T00:02:22.960Z,0.60
2024-03-14T00:02:35.553Z,0.60
2024-03-14T00:02:48.353Z,0.70
2024-03-14T00:03:00.606Z,0.50
2024-03-14T00:03:13.022Z,0.50
2024-03-14T00:03:26.192Z,0.90
2024-03-14T00:03:38.694Z,0.98
2024-03-14T00:03:52.048Z,1.20
2024-03-14T00:04:05.010Z,1.00
2024-03-14T00:04:17.263Z,0.70
2024-03-14T00:04:29.916Z,0.70
2024-03-14T00:04:42.138Z,0.68
2024-03-14T00:04:54.322Z,0.60
2024-03-14T00:05:06.729Z,0.50
2024-03-14T00:05:19.726Z,0.60
2024-03-14T00:05:31.906Z,0.80
2024-03-14T00:05:44.761Z,0.80
2024-03-14T00:05:57.088Z,1.58
2024-03-14T00:06:11.687Z,1.40
2024-03-14T00:06:24.017Z,0.60
2024-03-14T00:06:36.665Z,0.55
2024-03-14T00:06:49.093Z,0.73
2024-03-14T00:07:02.724Z,0.80
2024-03-14T00:07:15.973Z,0.75
2024-03-14T00:07:28.250Z,0.50
2024-03-14T00:07:40.407Z,0.60
2024-03-14T00:07:54.377Z,0.65
2024-03-14T00:08:06.834Z,0.70
2024-03-14T00:08:18.999Z,0.88
2024-03-14T00:08:31.208Z,0.60
2024-03-14T00:08:43.550Z,0.60
2024-03-14T00:08:56.422Z,0.55
2024-03-14T00:09:10.111Z,0.63
2024-03-14T00:09:24.313Z,0.90
2024-03-14T00:09:36.746Z,0.80
2024-03-14T00:09:49.586Z,0.50
2024-03-14T00:10:01.829Z,0.50
2024-03-14T00:10:15.324Z,0.50
2024-03-14T00:10:28.080Z,0.93
2024-03-14T00:10:41.243Z,1.00
2024-03-14T00:10:55.604Z,0.60
2024-03-14T00:11:07.941Z,0.50
2024-03-14T00:11:21.995Z,0.60
2024-03-14T00:11:34.250Z,0.63
2024-03-14T00:11:46.581Z,0.60
2024-03-14T00:11:58.812Z,0.50
2024-03-14T00:12:11.910Z,0.57
2024-03-14T00:12:24.281Z,0.60
2024-03-14T00:12:36.620Z,0.70
2024-03-14T00:12:48.789Z,1.10
2024-03-14T00:13:01.002Z,1.08
2024-03-14T00:13:13.331Z,0.70
2024-03-14T00:13:26.695Z,0.60
2024-03-14T00:13:39.016Z,0.70
2024-03-14T00:13:51.188Z,0.85
2024-03-14T00:14:03.354Z,1.40
2024-03-14T00:14:15.573Z,1.48
2024-03-14T00:14:27.759Z,1.40
2024-03-14T00:14:45.976Z,1.00
2024-03-14T00:14:58.267Z,1.10
2024-03-14T00:15:13.124Z,1.10
2024-03-14T00:15:26.077Z,0.85
2024-03-14T00:15:38.554Z,0.85
2024-03-14T00:15:50.910Z,1.10
2024-03-14T00:16:03.160Z,1.45
2024-03-14T00:16:15.579Z,1.10
2024-03-14T00:16:28.216Z,0.75
2024-03-14T00:16:41.412Z,0.60
2024-03-14T00:16:53.640Z,0.70
2024-03-14T00:17:05.874Z,0.50
2024-03-14T00:17:24.226Z,0.55
2024-03-14T00:17:39.702Z,1.17
2024-03-14T00:17:52.218Z,1.10
2024-03-14T00:18:05.987Z,0.70
2024-03-14T00:18:18.429Z,0.60
2024-03-14T00:18:30.991Z,0.50
2024-03-14T00:18:43.439Z,0.65
2024-03-14T00:18:55.920Z,0.93
2024-03-14T00:19:08.476Z,1.15
2024-03-14T00:19:23.618Z,1.30
2024-03-14T00:19:35.819Z,0.80
2024-03-14T00:19:48.081Z,0.50
2024-03-14T00:20:02.031Z,0.65
2024-03-14T00:20:15.648Z,0.70
2024-03-14T00:20:27.882Z,0.70
2024-03-14T00:20:43.939Z,0.77
2024-03-14T00:20:56.321Z,0.50
2024-03-14T00:21:11.531Z,0.50
2024-03-14T00:21:23.936Z,0.60
2024-03-14T00:21:43.278Z,0.60
2024-03-14T00:21:55.949Z,0.80
2024-03-14T00:22:08.134Z,0.55
2024-03-14T00:22:20.362Z,0.60
2024-03-14T00:22:32.568Z,0.77
2024-03-14T00:22:44.830Z,0.80
2024-03-14T00:22:58.402Z,0.90
2024-03-14T00:23:10.604Z,0.93
2024-03-14T00:23:24.684Z,0.95
2024-03-14T00:23:37.899Z,1.80
2024-03-14T00:23:50.734Z,1.80
2024-03-14T00:24:02.933Z,1.30
2024-03-14T00:24:16.073Z,1.08
2024-03-14T00:24:28.655Z,1.17
2024-03-14T00:24:42.916Z,1.10
2024-03-14T00:24:55.166Z,0.60
2024-03-14T00:25:13.647Z,0.60
2024-03-14T00:25:27.707Z,0.80
2024-03-14T00:25:41.993Z,0.82
2024-03-14T00:25:54.178Z,0.82
2024-03-14T00:26:10.354Z,0.60
2024-03-14T00:26:22.917Z,0.80
2024-03-14T00:26:35.219Z,0.80
2024-03-14T00:26:47.863Z,0.63
2024-03-14T00:27:00.469Z,0.50
2024-03-14T00:27:14.915Z,0.47
2024-03-14T00:27:27.390Z,0.60
2024-03-14T00:27:40.133Z,0.65
2024-03-14T00:27:52.341Z,0.65
2024-03-14T00:28:04.745Z,0.63
2024-03-14T00:28:16.971Z,0.70
2024-03-14T00:28:29.279Z,0.50
2024-03-14T00:28:41.456Z,0.98
2024-03-14T00:28:53.789Z,1.08
2024-03-14T00:29:09.220Z,1.13
2024-03-14T00:29:22.209Z,0.63
2024-03-14T00:29:34.512Z,0.60
2024-03-14T00:29:47.395Z,0.52
2024-03-14T00:29:59.772Z,0.60
2024-03-14T00:30:12.959Z,0.70
2024-03-14T00:30:28.651Z,0.45
2024-03-14T00:30:41.160Z,0.43
2024-03-14T00:30:53.331Z,0.60
2024-03-14T00:31:05.623Z,0.80
2024-03-14T00:31:17.821Z,0.80
2024-03-14T00:31:30.940Z,0.80
2024-03-14T00:31:43.461Z,1.50
2024-03-14T00:31:55.676Z,1.55
2024-03-14T00:32:08.138Z,1.50
2024-03-14T00:32:20.323Z,0.55
2024-03-14T00:32:35.009Z,0.52
2024-03-14T00:32:47.341Z,0.95
2024-03-14T00:33:00.798Z,0.90
2024-03-14T00:33:13.152Z,0.60
2024-03-14T00:33:25.563Z,0.70
2024-03-14T00:33:38.042Z,0.70
2024-03-14T00:33:50.298Z,0.68
2024-03-14T00:34:02.566Z,0.52
2024-03-14T00:34:15.996Z,0.60
2024-03-14T00:34:28.450Z,0.60
2024-03-14T00:34:41.801Z,0.50
2024-03-14T00:34:54.011Z,0.82
2024-03-14T00:35:06.338Z,1.08
2024-03-14T00:35:19.314Z,0.90
2024-03-14T00:35:31.455Z,0.50
2024-03-14T00:35:43.664Z,0.63
2024-03-14T00:35:55.897Z,0.85
2024-03-14T00:36:12.864Z,1.10
2024-03-14T00:36:25.394Z,0.80
2024-03-14T00:36:40.986Z,0.60
2024-03-14T00:36:54.719Z,0.80
2024-03-14T00:37:08.496Z,0.85
2024-03-14T00:37:20.699Z,0.55
2024-03-14T00:37:32.997Z,0.52
2024-03-14T00:37:48.335Z,0.50
2024-03-14T00:38:00.803Z,0.85
2024-03-14T00:38:12.981Z,0.90
2024-03-14T00:38:25.146Z,1.00
2024-03-14T00:38:37.430Z,0.98
2024-03-14T00:38:49.656Z,1.00
2024-03-14T00:39:01.915Z,1.00
2024-03-14T00:39:14.194Z,0.93
2024-03-14T00:39:28.215Z,0.65
2024-03-14T00:39:40.721Z,0.52
2024-03-14T00:39:52.960Z,0.68
2024-03-14T00:40:06.095Z,0.80
2024-03-14T00:40:20.284Z,0.70
2024-03-14T00:40:33.101Z,0.73
2024-03-14T00:40:45.283Z,0.70
2024-03-14T00:40:57.562Z,0.60
2024-03-14T00:41:14.553Z,0.95
2024-03-14T00:41:26.789Z,1.40
2024-03-14T00:41:39.361Z,1.10
2024-03-14T00:41:51.635Z,0.80
2024-03-14T00:42:05.403Z,1.05
2024-03-14T00:42:17.796Z,1.08
2024-03-14T00:42:30.068Z,1.02
2024-03-14T00:42:50.590Z,0.70
2024-03-14T00:43:03.510Z,0.50
2024-03-14T00:43:15.719Z,0.45
2024-03-14T00:43:28.181Z,0.90
2024-03-14T00:43:40.353Z,0.88
2024-03-14T00:43:52.784Z,1.17
2024-03-14T00:44:05.124Z,1.80
2024-03-14T00:44:18.582Z,2.10
2024-03-14T00:44:30.823Z,0.60
2024-03-14T00:44:43.657Z,0.50
2024-03-14T00:44:55.982Z,0.50
2024-03-14T00:45:08.325Z,0.77
2024-03-14T00:45:20.723Z,0.90
2024-03-14T00:45:33.105Z,1.10
2024-03-14T00:45:45.946Z,0.98
2024-03-14T00:45:58.278Z,0.90
2024-03-14T00:46:12.506Z,0.57
2024-03-14T00:46:25.383Z,0.60
2024-03-14T00:46:37.567Z,0.82
2024-03-14T00:46:49.848Z,0.80
2024-03-14T00:47:02.051Z,1.00
2024-03-14T00:47:14.460Z,1.08
2024-03-14T00:47:28.205Z,0.70
2024-03-14T00:47:40.562Z,0.65
2024-03-14T00:47:52.958Z,0.57
2024-03-14T00:48:05.536Z,0.55
2024-03-14T00:48:17.830Z,0.57
2024-03-14T00:48:30.189Z,0.50
2024-03-14T00:48:43.435Z,0.80
2024-03-14T00:48:55.771Z,1.20
2024-03-14T00:49:08.809Z,1.67
2024-03-14T00:49:20.980Z,1.40
2024-03-14T00:49:33.760Z,0.85
2024-03-14T00:49:46.032Z,1.30
2024-03-14T00:49:59.042Z,1.48
2024-03-14T00:50:11.696Z,1.23
2024-03-14T00:50:24.371Z,0.90
2024-03-14T00:50:38.114Z,0.70
2024-03-14T00:50:50.948Z,0.70
2024-03-14T00:51:03.228Z,0.80
2024-03-14T00:51:15.645Z,1.60
2024-03-14T00:51:27.991Z,1.80
2024-03-14T00:51:41.001Z,1.75
2024-03-14T00:51:53.156Z,0.80
2024-03-14T00:52:06.229Z,0.70
2024-03-14T00:52:18.657Z,1.30
2024-03-14T00:52:30.857Z,2.00
2024-03-14T00:52:43.122Z,1.25
2024-03-14T00:52:55.501Z,0.95
2024-03-14T00:53:08.517Z,1.48
2024-03-14T00:53:20.711Z,1.25
2024-03-14T00:53:32.942Z,0.75
2024-03-14T00:53:45.116Z,0.50
2024-03-14T00:53:57.660Z,0.55
2024-03-14T00:54:10.057Z,0.77
2024-03-14T00:54:22.325Z,0.75
2024-03-14T00:54:35.179Z,0.65
2024-03-14T00:54:47.779Z,0.63
2024-03-14T00:54:59.920Z,0.60
2024-03-14T00:55:12.939Z,0.55
2024-03-14T00:55:25.164Z,0.57
2024-03-14T00:55:37.350Z,0.60
2024-03-14T00:55:50.569Z,0.60
2024-03-14T00:56:03.066Z,0.50
2024-03-14T00:56:16.305Z,1.20
2024-03-14T00:56:28.605Z,1.30
2024-03-14T00:56:41.409Z,1.33
2024-03-14T00:56:54.406Z,0.50
2024-03-14T00:57:07.893Z,0.47
2024-03-14T00:57:20.240Z,0.60
2024-03-14T00:57:32.489Z,0.68
2024-03-14T00:57:44.747Z,0.50
2024-03-14T00:57:58.350Z,0.70
2024-03-14T00:58:12.288Z,0.60
2024-03-14T00:58:24.457Z,0.40
2024-03-14T00:58:36.707Z,0.50
2024-03-14T00:58:49.284Z,0.50
2024-03-14T00:59:01.681Z,0.70
2024-03-14T00:59:16.750Z,0.70
2024-03-14T00:59:29.447Z,0.47
2024-03-14T00:59:42.698Z,0.40
2024-03-14T00:59:54.876Z,0.43
2024-03-14T01:00:14.053Z,0.47
2024-03-14T01:00:26.650Z,0.88
2024-03-14T01:00:38.970Z,1.00
2024-03-14T01:00:51.505Z,1.00
2024-03-14T01:01:04.171Z,0.40
2024-03-14T01:01:16.472Z,0.40
2024-03-14T01:01:28.843Z,0.40
2024-03-14T01:01:46.328Z,0.52
2024-03-14T01:01:58.700Z,0.60
2024-03-14T01:02:11.092Z,0.55
2024-03-14T01:02:23.243Z,0.70
2024-03-14T01:02:36.502Z,0.70
2024-03-14T01:02:50.291Z,0.63
2024-03-14T01:03:02.752Z,0.43
2024-03-14T01:03:15.095Z,0.45
2024-03-14T01:03:27.470Z,0.40
2024-03-14T01:03:39.743Z,0.40
2024-03-14T01:03:54.924Z,0.40
2024-03-14T01:04:07.746Z,1.40
2024-03-14T01:04:19.954Z,1.50
2024-03-14T01:04:32.110Z,0.70
2024-03-14T01:04:45.721Z,1.45
2024-03-14T01:04:57.900Z,1.75
2024-03-14T01:05:10.521Z,1.15
2024-03-14T01:05:22.934Z,1.58
2024-03-14T01:05:35.385Z,1.40
2024-03-14T01:05:47.601Z,1.23
2024-03-14T01:06:00.126Z,0.75
2024-03-14T01:06:15.266Z,0.57
2024-03-14T01:06:27.999Z,1.08
2024-03-14T01:06:40.609Z,1.10
2024-03-14T01:06:54.141Z,0.65
2024-03-14T01:07:06.436Z,0.60
2024-03-14T01:07:19.808Z,0.70
2024-03-14T01:07:33.403Z,0.80
2024-03-14T01:07:49.196Z,1.20
2024-03-14T01:08:01.791Z,1.00
2024-03-14T01:08:13.965Z,0.55
2024-03-14T01:08:26.390Z,0.50
2024-03-14T01:08:39.940Z,0.40
2024-03-14T01:08:52.193Z,0.50
2024-03-14T01:09:04.583Z,0.50
2024-03-14T01:09:17.901Z,0.45
2024-03-14T01:09:32.256Z,0.57
2024-03-14T01:09:44.478Z,0.67
2024-03-14T01:09:56.623Z,0.98
2024-03-14T01:10:11.006Z,1.10
2024-03-14T01:10:23.470Z,1.02
2024-03-14T01:10:35.652Z,0.70
2024-03-14T01:10:48.074Z,0.60
2024-03-14T01:11:00.251Z,0.50
2024-03-14T01:11:12.581Z,0.40
2024-03-14T01:11:24.828Z,0.47
2024-03-14T01:11:37.062Z,0.55
2024-03-14T01:11:50.044Z,0.70
2024-03-14T01:12:02.227Z,0.90
2024-03-14T01:12:15.747Z,0.90
2024-03-14T01:12:28.000Z,0.70
2024-03-14T01:12:40.480Z,0.77
2024-03-14T01:12:52.667Z,0.68
2024-03-14T01:13:07.786Z,0.70
2024-03-14T01:13:20.482Z,0.90
2024-03-14T01:13:32.698Z,1.05
2024-03-14T01:13:45.759Z,0.90
2024-03-14T01:13:57.916Z,0.73
2024-03-14T01:14:12.906Z,0.52
2024-03-14T01:14:25.949Z,0.40
2024-03-14T01:14:38.132Z,0.40
2024-03-14T01:14:50.339Z,0.60
2024-03-14T01:15:02.973Z,0.60
2024-03-14T01:15:17.335Z,0.45
2024-03-14T01:15:31.450Z,0.60
2024-03-14T01:15:43.686Z,0.60
2024-03-14T01:15:55.870Z,0.55
2024-03-14T01:16:08.069Z,0.60
2024-03-14T01:16:20.850Z,0.35
2024-03-14T01:16:33.311Z,0.40
2024-03-14T01:16:45.460Z,1.05
2024-03-14T01:16:57.729Z,1.30
2024-03-14T01:17:10.420Z,0.70
2024-03-14T01:17:22.653Z,0.57
2024-03-14T01:17:35.580Z,0.50
2024-03-14T01:17:47.846Z,0.52
2024-03-14T01:18:01.038Z,0.50
2024-03-14T01:18:13.419Z,0.98
2024-03-14T01:18:25.882Z,1.05
2024-03-14T01:18:41.007Z,1.10
2024-03-14T01:18:53.371Z,0.80
2024-03-14T01:19:08.025Z,0.60
2024-03-14T01:19:20.556Z,0.50
2024-03-14T01:19:33.439Z,0.50
2024-03-14T01:19:45.569Z,0.73
2024-03-14T01:19:57.741Z,0.70
2024-03-14T01:20:12.167Z,0.55
2024-03-14T01:20:24.561Z,0.40
2024-03-14T01:20:39.794Z,0.40
2024-03-14T01:20:54.610Z,0.60
2024-03-14T01:21:09.710Z,0.57
2024-03-14T01:21:22.203Z,0.40
2024-03-14T01:21:40.456Z,0.45
2024-03-14T01:21:52.657Z,0.60
2024-03-14T01:22:04.971Z,0.70
2024-03-14T01:22:17.755Z,0.70
2024-03-14T01:22:30.536Z,0.50
2024-03-14T01:22:43.024Z,0.40
2024-03-14T01:22:55.207Z,0.50
2024-03-14T01:23:08.699Z,0.30
2024-03-14T01:23:20.867Z,0.60
2024-03-14T01:23:33.029Z,1.20
2024-03-14T01:23:45.387Z,1.15
2024-03-14T01:23:59.107Z,1.63
2024-03-14T01:24:11.486Z,1.08
2024-03-14T01:24:23.759Z,0.63
2024-03-14T01:24:39.555Z,0.60
2024-03-14T01:24:51.781Z,0.53
2024-03-14T01:25:07.334Z,0.50
2024-03-14T01:25:19.593Z,0.70
2024-03-14T01:25:31.809Z,0.80
2024-03-14T01:25:44.339Z,0.73
2024-03-14T01:25:56.535Z,0.47
2024-03-14T01:26:10.622Z,0.80
2024-03-14T01:26:22.802Z,0.90
2024-03-14T01:26:34.958Z,0.63
2024-03-14T01:26:47.232Z,0.57
2024-03-14T01:26:59.433Z,0.57
2024-03-14T01:27:11.672Z,0.68
2024-03-14T01:27:23.870Z,0.80
2024-03-14T01:27:36.259Z,0.80
2024-03-14T01:27:50.361Z,0.50
2024-03-14T01:28:02.720Z,0.40
2024-03-14T01:28:14.905Z,0.40
2024-03-14T01:28:27.036Z,0.40
2024-03-14T01:28:39.230Z,0.40
2024-03-14T01:28:51.459Z,0.38
2024-03-14T01:29:05.371Z,0.30
2024-03-14T01:29:17.563Z,0.68
2024-03-14T01:29:29.997Z,0.70
2024-03-14T01:29:42.275Z,0.70
2024-03-14T01:29:54.594Z,0.38
2024-03-14T01:30:13.857Z,0.40
2024-03-14T01:30:26.598Z,0.43
2024-03-14T01:30:39.306Z,0.55
2024-03-14T01:30:52.763Z,0.70
2024-03-14T01:31:05.038Z,1.00
2024-03-14T01:31:17.208Z,1.15
2024-03-14T01:31:29.593Z,1.10
2024-03-14T01:31:41.727Z,1.00
2024-03-14T01:31:53.868Z,0.40
2024-03-14T01:32:06.016Z,0.55
2024-03-14T01:32:18.187Z,0.70
2024-03-14T01:32:30.356Z,0.77
2024-03-14T01:32:43.105Z,0.65
2024-03-14T01:32:55.520Z,0.57
2024-03-14T01:33:07.816Z,0.40
2024-03-14T01:33:20.137Z,0.57
2024-03-14T01:33:32.853Z,0.50
2024-03-14T01:33:45.156Z,0.50
2024-03-14T01:33:57.468Z,0.50
2024-03-14T01:34:09.885Z,0.45
2024-03-14T01:34:23.485Z,0.75
2024-03-14T01:34:35.621Z,0.77
2024-03-14T01:34:48.712Z,0.80
2024-03-14T01:35:00.891Z,0.43
2024-03-14T01:35:13.129Z,0.68
2024-03-14T01:35:25.488Z,0.85
2024-03-14T01:35:37.845Z,0.80
2024-03-14T01:35:50.393Z,0.80
2024-03-14T01:36:02.648Z,0.60
2024-03-14T01:36:16.289Z,0.63
2024-03-14T01:36:28.943Z,0.65
2024-03-14T01:36:41.118Z,0.50
2024-03-14T01:36:53.282Z,0.40
2024-03-14T01:37:12.058Z,0.40
2024-03-14T01:37:24.307Z,0.50
2024-03-14T01:37:36.535Z,0.50
2024-03-14T01:37:48.698Z,0.63
2024-03-14T01:38:01.163Z,0.80
2024-03-14T01:38:13.472Z,0.70
2024-03-14T01:38:26.029Z,0.50
2024-03-14T01:38:38.213Z,0.40
2024-03-14T01:38:50.428Z,0.40
2024-03-14T01:39:02.703Z,0.30
2024-03-14T01:39:15.618Z,0.40
2024-03-14T01:39:28.368Z,0.43
2024-03-14T01:39:40.635Z,0.73
2024-03-14T01:39:52.962Z,0.70
2024-03-14T01:40:07.758Z,1.02
2024-03-14T01:40:19.991Z,0.60
2024-03-14T01:40:32.440Z,0.40
2024-03-14T01:40:44.700Z,0.40
2024-03-14T01:40:56.918Z,0.30
2024-03-14T01:41:27.698Z,0.47
2024-03-14T01:41:40.032Z,0.40
2024-03-14T01:41:53.356Z,0.40
2024-03-14T01:42:05.861Z,0.40
2024-03-14T01:42:18.406Z,0.40
2024-03-14T01:42:30.629Z,0.40
2024-03-14T01:42:47.221Z,0.40
2024-03-14T01:42:59.789Z,0.30
2024-03-14T01:43:13.022Z,0.30
2024-03-14T01:43:25.207Z,0.40
2024-03-14T01:43:37.381Z,0.50
2024-03-14T01:44:00.018Z,0.63
2024-03-14T01:44:12.234Z,0.55
2024-03-14T01:44:25.037Z,0.40
2024-03-14T01:45:02.267Z,0.50
2024-03-14T01:45:18.998Z,0.60
2024-03-14T01:45:31.752Z,0.50
2024-03-14T01:45:44.041Z,0.60
2024-03-14T01:45:56.264Z,1.20
2024-03-14T01:46:08.539Z,1.10
2024-03-14T01:46:20.750Z,0.85
2024-03-14T01:46:33.679Z,1.00
2024-03-14T01:46:45.924Z,1.00
2024-03-14T01:46:58.146Z,0.40
2024-03-14T01:47:10.320Z,0.50
2024-03-14T01:47:25.447Z,0.60
2024-03-14T01:47:38.420Z,0.70
2024-03-14T01:47:50.866Z,0.77
2024-03-14T01:48:03.310Z,0.50
2024-03-14T01:48:16.139Z,0.45
2024-03-14T01:48:28.516Z,0.50
2024-03-14T01:48:43.040Z,0.52
2024-03-14T01:48:56.643Z,0.40
2024-03-14T01:49:08.923Z,0.43
2024-03-14T01:49:21.316Z,0.60
2024-03-14T01:49:34.396Z,0.52
2024-03-14T01:49:46.900Z,0.63
2024-03-14T01:49:59.102Z,0.50
2024-03-14T01:50:12.533Z,0.80
2024-03-14T01:50:24.872Z,0.57
2024-03-14T01:50:37.110Z,1.15
2024-03-14T01:50:49.296Z,1.00
2024-03-14T01:51:01.981Z,0.43
2024-03-14T01:51:14.215Z,0.30
2024-03-14T01:51:27.722Z,0.32
2024-03-14T01:51:40.821Z,0.55
2024-03-14T01:51:53.597Z,0.65
2024-03-14T01:52:05.818Z,0.38
2024-03-14T01:52:21.175Z,0.35
2024-03-14T01:52:36.619Z,0.50
2024-03-14T01:52:48.922Z,0.60
2024-03-14T01:53:01.137Z,0.68
2024-03-14T01:53:13.490Z,0.50
2024-03-14T01:53:25.656Z,0.45
2024-03-14T01:53:37.820Z,0.90
2024-03-14T01:53:50.719Z,0.80
2024-03-14T01:54:02.984Z,0.50
2024-03-14T01:54:15.283Z,0.40
2024-03-14T01:54:27.815Z,0.40
2024-03-14T01:54:40.103Z,0.45
2024-03-14T01:54:52.338Z,0.50
2024-03-14T01:55:05.674Z,0.60
2024-03-14T01:55:18.061Z,0.50
2024-03-14T01:55:30.218Z,0.40
2024-03-14T01:55:44.159Z,0.40
2024-03-14T01:55:56.369Z,0.40
2024-03-14T01:56:08.585Z,0.40
2024-03-14T01:56:23.196Z,0.40
2024-03-14T01:56:37.323Z,0.40
2024-03-14T01:56:59.361Z,0.50
2024-03-14T01:57:12.466Z,0.97
2024-03-14T01:57:25.063Z,0.60
2024-03-14T01:57:38.110Z,0.80
2024-03-14T01:57:50.340Z,0.70
2024-03-14T01:58:02.677Z,0.88
2024-03-14T01:58:18.560Z,0.82
2024-03-14T01:58:31.119Z,0.43
2024-03-14T01:58:44.961Z,0.50
2024-03-14T01:58:57.177Z,0.43
2024-03-14T01:59:10.031Z,0.60
2024-03-14T01:59:22.229Z,0.60
2024-03-14T01:59:34.671Z,0.75
2024-03-14T01:59:51.615Z,1.95
2024-03-14T02:00:12.680Z,1.77
2024-03-14T02:00:30.949Z,0.35
2024-03-14T02:00:51.690Z,0.43
2024-03-14T02:01:05.024Z,0.57
2024-03-14T02:01:17.613Z,0.80
2024-03-14T02:01:29.845Z,0.65
2024-03-14T02:01:42.084Z,0.60
2024-03-14T02:01:56.181Z,0.50
2024-03-14T02:02:09.691Z,0.55
2024-03-14T02:02:26.164Z,0.45
2024-03-14T02:02:38.973Z,0.32
2024-03-14T02:02:51.546Z,0.32
2024-03-14T02:03:04.757Z,0.30
2024-03-14T02:03:18.306Z,0.40
2024-03-14T02:03:31.402Z,0.50
2024-03-14T02:03:50.230Z,0.60
2024-03-14T02:04:08.573Z,0.70
2024-03-14T02:04:25.274Z,0.35
2024-03-14T02:04:44.873Z,0.40
2024-03-14T02:05:16.812Z,0.50
2024-03-14T02:05:43.151Z,0.40
2024-03-14T02:06:05.617Z,0.45
2024-03-14T02:06:41.635Z,0.52
2024-03-14T02:06:59.836Z,0.50
2024-03-14T02:07:15.567Z,0.57
2024-03-14T02:07:32.123Z,0.60
2024-03-14T02:07:44.502Z,0.43
2024-03-14T02:07:56.764Z,0.70
2024-03-14T02:08:09.559Z,0.85
2024-03-14T02:08:21.989Z,0.50
2024-03-14T02:08:36.306Z,0.40
2024-03-14T02:08:48.727Z,0.32
2024-03-14T02:09:01.513Z,0.40
2024-03-14T02:09:14.835Z,0.32
2024-03-14T02:09:29.954Z,0.30
2024-03-14T02:09:42.939Z,0.50
2024-03-14T02:09:55.520Z,0.50
2024-03-14T02:10:11.116Z,0.50
2024-03-14T02:10:26.011Z,0.40
2024-03-14T02:10:55.910Z,0.88
2024-03-14T02:11:08.291Z,0.25
2024-03-14T02:11:23.323Z,0.30
2024-03-14T02:11:35.615Z,0.30
2024-03-14T02:11:48.238Z,0.40
2024-03-14T02:12:01.721Z,0.43
2024-03-14T02:12:14.351Z,0.50
2024-03-14T02:12:27.057Z,0.40
2024-03-14T02:12:40.438Z,0.40
2024-03-14T02:12:55.870Z,0.40
2024-03-14T02:13:08.443Z,0.38
2024-03-14T02:13:21.396Z,0.43
2024-03-14T02:13:33.817Z,0.38
2024-03-14T02:13:46.478Z,0.38
2024-03-14T02:13:58.969Z,1.00
2024-03-14T02:14:12.157Z,1.15
2024-03-14T02:14:24.645Z,0.60
2024-03-14T02:14:37.446Z,0.70
2024-03-14T02:14:50.022Z,0.50
2024-03-14T02:15:03.595Z,0.45
2024-03-14T02:15:17.230Z,0.50
2024-03-14T02:15:30.007Z,0.50
2024-03-14T02:15:43.110Z,0.40
2024-03-14T02:15:55.652Z,0.40
2024-03-14T02:16:08.103Z,0.47
2024-03-14T02:16:21.257Z,0.60
2024-03-14T02:16:33.780Z,0.70
2024-03-14T02:16:46.136Z,0.40
2024-03-14T02:17:01.310Z,0.30
2024-03-14T02:17:13.760Z,0.30
2024-03-14T02:17:26.138Z,0.30
2024-03-14T02:17:38.561Z,0.32
2024-03-14T02:17:51.875Z,0.52
2024-03-14T02:18:04.511Z,0.55
2024-03-14T02:18:17.019Z,0.50
2024-03-14T02:18:29.637Z,0.40
2024-03-14T02:18:42.124Z,0.60
2024-03-14T02:18:54.460Z,0.60
2024-03-14T02:19:08.725Z,0.40
2024-03-14T02:19:21.239Z,0.60
2024-03-14T02:19:34.298Z,0.50
2024-03-14T02:19:46.978Z,0.30
2024-03-14T02:19:59.389Z,0.32
2024-03-14T02:20:16.255Z,0.40
2024-03-14T02:20:28.918Z,0.40
2024-03-14T02:20:41.454Z,0.85
2024-03-14T02:20:53.757Z,1.23
2024-03-14T02:21:06.257Z,0.90
2024-03-14T02:21:18.685Z,0.50
2024-03-14T02:21:31.766Z,0.30
2024-03-14T02:21:44.458Z,0.40
2024-03-14T02:22:03.288Z,0.30
2024-03-14T02:22:21.923Z,0.20
2024-03-14T02:22:34.371Z,0.57
2024-03-14T02:22:46.865Z,0.60
2024-03-14T02:23:00.069Z,0.40
2024-03-14T02:23:12.424Z,0.45
2024-03-14T02:23:24.897Z,0.60
2024-03-14T02:23:37.189Z,0.80
2024-03-14T02:23:52.693Z,0.47
2024-03-14T02:24:05.233Z,0.80
2024-03-14T02:24:20.606Z,0.80
2024-03-14T02:24:33.008Z,0.30
2024-03-14T02:24:45.421Z,0.30
2024-03-14T02:24:57.733Z,0.30
2024-03-14T02:25:10.228Z,0.50
2024-03-14T02:25:23.684Z,0.40
2024-03-14T02:25:36.971Z,0.30
2024-03-14T02:25:49.703Z,0.30
2024-03-14T02:26:02.056Z,0.28
2024-03-14T02:26:14.424Z,0.30
2024-03-14T02:26:28.318Z,0.30
2024-03-14T02:26:42.091Z,0.30
2024-03-14T02:26:56.230Z,0.55
2024-03-14T02:27:11.146Z,0.60
2024-03-14T02:27:26.789Z,0.43
2024-03-14T02:27:39.419Z,0.40
2024-03-14T02:27:51.815Z,0.30
2024-03-14T02:28:04.912Z,0.30
2024-03-14T02:28:17.295Z,0.30
2024-03-14T02:28:31.770Z,0.30
2024-03-14T02:28:44.125Z,0.38
2024-03-14T02:28:56.581Z,0.30
2024-03-14T02:29:09.124Z,0.40
2024-03-14T02:29:21.922Z,0.35
2024-03-14T02:29:34.419Z,0.32
2024-03-14T02:29:46.968Z,0.43
2024-03-14T02:29:59.624Z,0.60
2024-03-14T02:30:12.761Z,0.60
2024-03-14T02:30:25.245Z,0.40
2024-03-14T02:30:38.058Z,0.40
2024-03-14T02:30:50.515Z,0.40
2024-03-14T02:31:04.200Z,0.30
2024-03-14T02:31:16.671Z,0.25
2024-03-14T02:31:29.147Z,0.30
2024-03-14T02:31:41.497Z,0.40
2024-03-14T02:31:53.907Z,0.45
2024-03-14T02:32:06.512Z,0.40
2024-03-14T02:32:19.746Z,0.40
2024-03-14T02:32:32.270Z,0.30
2024-03-14T02:32:44.647Z,0.30
2024-03-14T02:32:57.117Z,0.45
2024-03-14T02:33:10.047Z,0.57
2024-03-14T02:33:22.521Z,0.55
2024-03-14T02:33:34.961Z,0.40
2024-03-14T02:33:47.585Z,0.45
2024-03-14T02:33:59.980Z,0.40
2024-03-14T02:34:12.450Z,0.30
2024-03-14T02:34:24.832Z,0.30
2024-03-14T02:34:37.608Z,0.30
2024-03-14T02:34:50.215Z,0.30
2024-03-14T02:35:03.967Z,0.30
2024-03-14T02:35:16.466Z,0.50
2024-03-14T02:35:28.889Z,0.55
2024-03-14T02:35:41.411Z,0.45
2024-03-14T02:35:53.700Z,0.40
2024-03-14T02:36:06.658Z,0.35
2024-03-14T02:36:19.101Z,0.35
2024-03-14T02:36:33.640Z,0.40
2024-03-14T02:36:46.268Z,0.45
2024-03-14T02:36:58.813Z,0.47
2024-03-14T02:37:14.024Z,0.50
2024-03-14T02:37:26.564Z,0.30
2024-03-14T02:37:38.982Z,0.32
2024-03-14T02:37:53.938Z,0.30
2024-03-14T02:38:06.474Z,0.30
2024-03-14T02:38:18.830Z,0.25
2024-03-14T02:38:31.260Z,0.30
2024-03-14T02:38:43.669Z,0.30
2024-03-14T02:38:56.056Z,0.30
2024-03-14T02:39:08.747Z,0.30
2024-03-14T02:39:23.987Z,0.30
2024-03-14T02:39:36.572Z,0.30
2024-03-14T02:39:49.397Z,0.30
2024-03-14T02:40:01.771Z,0.25
2024-03-14T02:40:14.265Z,0.20
2024-03-14T02:40:26.681Z,0.30
2024-03-14T02:40:39.271Z,0.40
2024-03-14T02:40:51.724Z,0.40
2024-03-14T02:41:04.527Z,0.40
2024-03-14T02:41:16.973Z,0.30
2024-03-14T02:41:32.220Z,0.30
2024-03-14T02:41:45.790Z,0.35
2024-03-14T02:41:58.379Z,0.22
2024-03-14T02:42:12.880Z,0.40
2024-03-14T02:42:26.363Z,0.40
2024-03-14T02:42:39.333Z,0.40
2024-03-14T02:42:52.371Z,0.32
2024-03-14T02:43:04.978Z,0.32
2024-03-14T02:43:17.590Z,0.35
2024-03-14T02:43:30.032Z,0.30
2024-03-14T02:43:43.143Z,0.32
2024-03-14T02:43:59.244Z,0.32
2024-03-14T02:44:16.465Z,0.50
2024-03-14T02:44:29.108Z,0.40
2024-03-14T02:44:41.794Z,0.45
2024-03-14T02:44:54.417Z,0.40
2024-03-14T02:45:07.682Z,0.47
2024-03-14T02:45:21.849Z,0.40
2024-03-14T02:45:35.457Z,0.63
2024-03-14T02:45:48.197Z,0.60
2024-03-14T02:46:00.753Z,0.38
2024-03-14T02:46:13.258Z,0.40
2024-03-14T02:46:28.764Z,0.43
2024-03-14T02:46:41.528Z,0.45
2024-03-14T02:46:53.960Z,0.40
2024-03-14T02:47:08.755Z,0.40
2024-03-14T02:47:21.162Z,0.47
2024-03-14T02:47:33.904Z,0.40
2024-03-14T02:47:46.359Z,0.30
2024-03-14T02:48:00.221Z,0.60
2024-03-14T02:48:12.684Z,0.75
2024-03-14T02:48:25.680Z,0.63
2024-03-14T02:48:38.270Z,0.40
2024-03-14T02:48:51.226Z,0.40
2024-03-14T02:49:03.579Z,0.38
2024-03-14T02:49:16.295Z,0.30
2024-03-14T02:49:28.826Z,0.30
2024-03-14T02:49:41.286Z,0.30
2024-03-14T02:49:53.676Z,0.50
2024-03-14T02:50:10.309Z,0.60
2024-03-14T02:50:23.594Z,0.70
2024-03-14T02:50:35.976Z,0.65
2024-03-14T02:50:48.366Z,0.50
2024-03-14T02:51:02.161Z,0.50
2024-03-14T02:51:15.204Z,0.47
2024-03-14T02:51:28.522Z,0.40
2024-03-14T02:51:41.201Z,0.40
2024-03-14T02:51:53.610Z,0.30
2024-03-14T02:52:07.434Z,0.30
2024-03-14T02:52:19.889Z,0.30
2024-03-14T02:52:32.159Z,0.30
2024-03-14T02:52:44.570Z,0.30
2024-03-14T02:52:58.597Z,0.30
2024-03-14T02:53:14.467Z,0.22
2024-03-14T02:53:28.158Z,0.77
2024-03-14T02:53:40.542Z,1.33
2024-03-14T02:53:52.749Z,0.90
2024-03-14T02:54:08.017Z,0.60
2024-03-14T02:54:21.184Z,0.30
2024-03-14T02:54:33.524Z,0.30
2024-03-14T02:54:45.700Z,0.20
2024-03-14T02:54:58.067Z,0.30
2024-03-14T02:55:10.840Z,0.50
2024-03-14T02:55:22.973Z,0.70
2024-03-14T02:55:35.152Z,0.77
2024-03-14T02:55:47.998Z,0.40
2024-03-14T02:56:00.389Z,0.60